Fortune Bird — VRHQ8 — position and weather

sailwx.info

Track history (hours):
 
Tides and Currents Weather Stations Pressure Air Temp Water Temp Dewpoint Dewpoint Depression Visibility Wind Speed Wind Dir Waves Ship Positions

Fortune Bird

Last reported at 2018-May-26 08:18 UTC. Time now 2018-Jun-19 02:30 UTC.
Position N 31°05' E 122°34'.
Warning: this ship's position is 23 days out of date.

Length 190 m; draft 7.2 m.

Type: Cargo ship. MMSI: 477963100.

Date/timePositionNaut miles runAvg speedWind from/ knotsBaromVisibWave heightAir tempDewpointWater temp
2018-May-26 08:18N 31°05' E 122°34'310.4
2018-May-26 08:00N 31°06' E 122°31'5 9.7
2018-May-26 07:30N 31°06' E 122°25'611.8
2018-May-26 07:00N 31°06' E 122°18'814.8
2018-May-26 06:29N 31°10' E 122°11'1414.8
2018-May-26 05:30N 31°16' E 121°55'714.7
2018-May-26 05:00N 31°18' E 121°47'912.6
2018-May-26 04:18N 31°22' E 121°38'411.7
2018-May-26 03:59N 31°24' E 121°34'511.1
2018-May-26 03:30N 31°27' E 121°29'5 9.7
2018-May-26 03:00N 31°29' E 121°24'1 1.9
2018-May-26 02:30N 31°30' E 121°23'0 0.0
2018-May-26 02:00N 31°30' E 121°23'0 0.0
2018-May-26 01:27N 31°30' E 121°23'0 0.0
2018-May-26 00:57N 31°30' E 121°23'0 0.0
2018-May-26 00:30N 31°30' E 121°23'0 0.0
2018-May-25 23:51N 31°30' E 121°23'0 0.0
2018-May-25 23:27N 31°30' E 121°23'0 0.0
2018-May-25 22:57N 31°30' E 121°23'0 0.1
2018-May-25 22:30N 31°30' E 121°23'0 0.0
2018-May-25 22:00N 31°30' E 121°23'0 0.1
2018-May-25 21:27N 31°30' E 121°23'0 0.1
2018-May-25 21:00N 31°30' E 121°23'0 0.1
2018-May-25 20:27N 31°30' E 121°23'0 0.0
2018-May-25 19:57N 31°30' E 121°23'0 0.1
2018-May-25 19:30N 31°30' E 121°23'0 0.1
2018-May-25 18:48N 31°30' E 121°23'0 0.0
2018-May-25 18:30N 31°30' E 121°23'0 0.0
2018-May-25 17:51N 31°30' E 121°23'0 0.0
2018-May-25 17:27N 31°30' E 121°23'0 0.0
2018-May-25 16:39N 31°30' E 121°23'0 0.1
2018-May-25 16:27N 31°30' E 121°23'0 0.0
2018-May-25 15:57N 31°30' E 121°23'0 0.0
2018-May-25 15:27N 31°30' E 121°23'0 0.0
2018-May-25 15:00N 31°30' E 121°23'0 0.0
2018-May-25 14:27N 31°30' E 121°23'0 0.0
2018-May-25 14:00N 31°30' E 121°23'0 0.1
2018-May-25 13:27N 31°30' E 121°23'0 0.1
2018-May-25 12:54N 31°30' E 121°23'0 0.0
2018-May-25 12:24N 31°30' E 121°23'0 0.0
2018-May-25 12:00N 31°30' E 121°23'0 0.0
2018-May-25 11:30N 31°30' E 121°23'0 0.0
2018-May-25 11:00N 31°30' E 121°23'0 0.0
2018-May-25 10:30N 31°30' E 121°23'0 0.1
2018-May-25 09:57N 31°30' E 121°23'0 0.1
2018-May-25 09:27N 31°30' E 121°23'0 0.0
2018-May-25 08:27N 31°30' E 121°23'0 0.0
2018-May-25 08:00N 31°30' E 121°23'0 0.0
2018-May-25 07:24N 31°30' E 121°23'0 0.0
2018-May-25 07:00N 31°30' E 121°23'0 0.0
2018-May-25 06:27N 31°30' E 121°23'0 0.0
2018-May-25 05:57N 31°30' E 121°23'0 0.0
2018-May-25 05:30N 31°30' E 121°23'0 0.0
2018-May-25 04:57N 31°30' E 121°23'0 0.0
2018-May-25 04:30N 31°30' E 121°23'0 0.0
2018-May-25 03:57N 31°30' E 121°23'0 0.0
2018-May-25 03:27N 31°30' E 121°23'0 0.0
2018-May-25 02:57N 31°30' E 121°23'0 0.3
2018-May-25 02:30N 31°30' E 121°23'1 2.4
2018-May-25 02:00N 31°29' E 121°24'3 5.6
2018-May-25 01:30N 31°28' E 121°27'3 6.7
2018-May-25 00:59N 31°26' E 121°30'4 7.4
2018-May-25 00:30N 31°24' E 121°34'6 9.7
2018-May-24 23:53N 31°21' E 121°40'611.4
2018-May-24 23:23N 31°18' E 121°46'810.8
2018-May-24 22:41N 31°16' E 121°54'310.7
2018-May-24 22:22N 31°15' E 121°58'411.1
2018-May-24 22:00N 31°14' E 122°03'811.3
2018-May-24 21:16N 31°10' E 122°12'311.1
2018-May-24 21:00N 31°08' E 122°14'510.3
2018-May-24 20:30N 31°06' E 122°20'510.7
2018-May-24 20:00N 31°06' E 122°26'5 8.9
2018-May-24 19:30N 31°07' E 122°31'3 6.7
2018-May-24 19:00N 31°07' E 122°35'6 9.2
2018-May-24 18:23N 31°06' E 122°42'410.5
2018-May-24 18:00N 31°06' E 122°46'2 0.6
2018-May-24 14:51N 31°08' E 122°47'0 0.0
2018-May-24 14:24N 31°08' E 122°47'0 0.0
2018-May-24 09:00N 31°08' E 122°47'0 0.1
2018-May-24 08:18N 31°08' E 122°47'0 0.0
2018-May-24 07:30N 31°08' E 122°47'0 0.1
2018-May-24 05:39N 31°08' E 122°47'0 0.1
2018-May-24 05:30N 31°08' E 122°47'0 0.0
2018-May-24 05:00N 31°08' E 122°47'0 0.0
2018-May-24 04:18N 31°08' E 122°47'0 0.1
2018-May-24 03:57N 31°08' E 122°47'0 0.0
2018-May-24 02:30N 31°08' E 122°47'0 0.0
2018-May-24 01:24N 31°08' E 122°47'0 0.1
2018-May-24 00:15N 31°08' E 122°47'0 0.0
2018-May-24 00:00N 31°08' E 122°47'0 0.1
2018-May-23 23:30N 31°08' E 122°47'0 0.0
2018-May-23 22:51N 31°08' E 122°47'0 0.1
2018-May-23 22:24N 31°08' E 122°47'0 0.0
2018-May-23 21:54N 31°08' E 122°47'0 0.0
2018-May-23 21:30N 31°08' E 122°47'0 0.1
2018-May-23 20:57N 31°08' E 122°47'0 0.0
2018-May-23 20:27N 31°08' E 122°47'0 0.1
2018-May-23 20:00N 31°08' E 122°47'0 0.1
2018-May-23 19:07N 31°08' E 122°47'0 0.3
2018-May-23 18:57N 31°08' E 122°47'0 0.0
2018-May-23 18:27N 31°08' E 122°47'0 0.0
2018-May-23 17:15N 31°08' E 122°47'0 0.0
2018-May-23 16:57N 31°08' E 122°47'0 0.1
2018-May-23 16:15N 31°08' E 122°47'0 0.0
2018-May-23 16:00N 31°08' E 122°47'0 0.0
2018-May-23 15:12N 31°08' E 122°47'0 0.0
2018-May-23 14:54N 31°08' E 122°47'0 0.1
2018-May-23 14:12N 31°08' E 122°47'0 0.1
2018-May-23 12:36N 31°08' E 122°47'0 0.1
2018-May-23 12:24N 31°08' E 122°47'0 0.1
2018-May-23 11:48N 31°08' E 122°47'0 0.1
2018-May-23 11:30N 31°08' E 122°47'0 0.0
2018-May-23 10:54N 31°08' E 122°47'0 0.1
2018-May-23 10:27N 31°08' E 122°47'0 0.0
2018-May-23 09:57N 31°08' E 122°47'0 0.0
2018-May-23 09:30N 31°08' E 122°47'0 0.0
2018-May-23 08:18N 31°08' E 122°47'0 0.2
2018-May-23 07:57N 31°08' E 122°47'  
Track history (hours):
 
Tides and Currents Weather Stations Pressure Air Temp Water Temp Dewpoint Dewpoint Depression Visibility Wind Speed Wind Dir Waves Ship Positions

Fortune Bird

Last reported at 2018-May-26 08:18 UTC. Time now 2018-Jun-19 02:30 UTC.
Position N 31°05' E 122°34'.
Warning: this ship's position is 23 days out of date.

Length 190 m; draft 7.2 m.

Type: Cargo ship. MMSI: 477963100.

Date/timePositionNaut miles runAvg speedWind from/ knotsBaromVisibWave heightAir tempDewpointWater temp
2018-May-26 08:18N 31°05' E 122°34'310.4
2018-May-26 08:00N 31°06' E 122°31'5 9.7
2018-May-26 07:30N 31°06' E 122°25'611.8
2018-May-26 07:00N 31°06' E 122°18'814.8
2018-May-26 06:29N 31°10' E 122°11'1414.8
2018-May-26 05:30N 31°16' E 121°55'714.7
2018-May-26 05:00N 31°18' E 121°47'912.6
2018-May-26 04:18N 31°22' E 121°38'411.7
2018-May-26 03:59N 31°24' E 121°34'511.1
2018-May-26 03:30N 31°27' E 121°29'5 9.7
2018-May-26 03:00N 31°29' E 121°24'1 1.9
2018-May-26 02:30N 31°30' E 121°23'0 0.0
2018-May-26 02:00N 31°30' E 121°23'0 0.0
2018-May-26 01:27N 31°30' E 121°23'0 0.0
2018-May-26 00:57N 31°30' E 121°23'0 0.0
2018-May-26 00:30N 31°30' E 121°23'0 0.0
2018-May-25 23:51N 31°30' E 121°23'0 0.0
2018-May-25 23:27N 31°30' E 121°23'0 0.0
2018-May-25 22:57N 31°30' E 121°23'0 0.1
2018-May-25 22:30N 31°30' E 121°23'0 0.0
2018-May-25 22:00N 31°30' E 121°23'0 0.1
2018-May-25 21:27N 31°30' E 121°23'0 0.1
2018-May-25 21:00N 31°30' E 121°23'0 0.1
2018-May-25 20:27N 31°30' E 121°23'0 0.0
2018-May-25 19:57N 31°30' E 121°23'0 0.1
2018-May-25 19:30N 31°30' E 121°23'0 0.1
2018-May-25 18:48N 31°30' E 121°23'0 0.0
2018-May-25 18:30N 31°30' E 121°23'0 0.0
2018-May-25 17:51N 31°30' E 121°23'0 0.0
2018-May-25 17:27N 31°30' E 121°23'0 0.0
2018-May-25 16:39N 31°30' E 121°23'0 0.1
2018-May-25 16:27N 31°30' E 121°23'0 0.0
2018-May-25 15:57N 31°30' E 121°23'0 0.0
2018-May-25 15:27N 31°30' E 121°23'0 0.0
2018-May-25 15:00N 31°30' E 121°23'0 0.0
2018-May-25 14:27N 31°30' E 121°23'0 0.0
2018-May-25 14:00N 31°30' E 121°23'0 0.1
2018-May-25 13:27N 31°30' E 121°23'0 0.1
2018-May-25 12:54N 31°30' E 121°23'0 0.0
2018-May-25 12:24N 31°30' E 121°23'0 0.0
2018-May-25 12:00N 31°30' E 121°23'0 0.0
2018-May-25 11:30N 31°30' E 121°23'0 0.0
2018-May-25 11:00N 31°30' E 121°23'0 0.0
2018-May-25 10:30N 31°30' E 121°23'0 0.1
2018-May-25 09:57N 31°30' E 121°23'0 0.1
2018-May-25 09:27N 31°30' E 121°23'0 0.0
2018-May-25 08:27N 31°30' E 121°23'0 0.0
2018-May-25 08:00N 31°30' E 121°23'0 0.0
2018-May-25 07:24N 31°30' E 121°23'0 0.0
2018-May-25 07:00N 31°30' E 121°23'0 0.0
2018-May-25 06:27N 31°30' E 121°23'0 0.0
2018-May-25 05:57N 31°30' E 121°23'0 0.0
2018-May-25 05:30N 31°30' E 121°23'0 0.0
2018-May-25 04:57N 31°30' E 121°23'0 0.0
2018-May-25 04:30N 31°30' E 121°23'0 0.0
2018-May-25 03:57N 31°30' E 121°23'0 0.0
2018-May-25 03:27N 31°30' E 121°23'0 0.0
2018-May-25 02:57N 31°30' E 121°23'0 0.3
2018-May-25 02:30N 31°30' E 121°23'1 2.4
2018-May-25 02:00N 31°29' E 121°24'3 5.6
2018-May-25 01:30N 31°28' E 121°27'3 6.7
2018-May-25 00:59N 31°26' E 121°30'4 7.4
2018-May-25 00:30N 31°24' E 121°34'6 9.7
2018-May-24 23:53N 31°21' E 121°40'611.4
2018-May-24 23:23N 31°18' E 121°46'810.8
2018-May-24 22:41N 31°16' E 121°54'310.7
2018-May-24 22:22N 31°15' E 121°58'411.1
2018-May-24 22:00N 31°14' E 122°03'811.3
2018-May-24 21:16N 31°10' E 122°12'311.1
2018-May-24 21:00N 31°08' E 122°14'510.3
2018-May-24 20:30N 31°06' E 122°20'510.7
2018-May-24 20:00N 31°06' E 122°26'5 8.9
2018-May-24 19:30N 31°07' E 122°31'3 6.7
2018-May-24 19:00N 31°07' E 122°35'6 9.2
2018-May-24 18:23N 31°06' E 122°42'410.5
2018-May-24 18:00N 31°06' E 122°46'2 0.6
2018-May-24 14:51N 31°08' E 122°47'0 0.0
2018-May-24 14:24N 31°08' E 122°47'0 0.0
2018-May-24 09:00N 31°08' E 122°47'0 0.1
2018-May-24 08:18N 31°08' E 122°47'0 0.0
2018-May-24 07:30N 31°08' E 122°47'0 0.1
2018-May-24 05:39N 31°08' E 122°47'0 0.1
2018-May-24 05:30N 31°08' E 122°47'0 0.0
2018-May-24 05:00N 31°08' E 122°47'0 0.0
2018-May-24 04:18N 31°08' E 122°47'0 0.1
2018-May-24 03:57N 31°08' E 122°47'0 0.0
2018-May-24 02:30N 31°08' E 122°47'0 0.0
2018-May-24 01:24N 31°08' E 122°47'0 0.1
2018-May-24 00:15N 31°08' E 122°47'0 0.0
2018-May-24 00:00N 31°08' E 122°47'0 0.1
2018-May-23 23:30N 31°08' E 122°47'0 0.0
2018-May-23 22:51N 31°08' E 122°47'0 0.1
2018-May-23 22:24N 31°08' E 122°47'0 0.0
2018-May-23 21:54N 31°08' E 122°47'0 0.0
2018-May-23 21:30N 31°08' E 122°47'0 0.1
2018-May-23 20:57N 31°08' E 122°47'0 0.0
2018-May-23 20:27N 31°08' E 122°47'0 0.1
2018-May-23 20:00N 31°08' E 122°47'0 0.1
2018-May-23 19:07N 31°08' E 122°47'0 0.3
2018-May-23 18:57N 31°08' E 122°47'0 0.0
2018-May-23 18:27N 31°08' E 122°47'0 0.0
2018-May-23 17:15N 31°08' E 122°47'0 0.0
2018-May-23 16:57N 31°08' E 122°47'0 0.1
2018-May-23 16:15N 31°08' E 122°47'0 0.0
2018-May-23 16:00N 31°08' E 122°47'0 0.0
2018-May-23 15:12N 31°08' E 122°47'0 0.0
2018-May-23 14:54N 31°08' E 122°47'0 0.1
2018-May-23 14:12N 31°08' E 122°47'0 0.1
2018-May-23 12:36N 31°08' E 122°47'0 0.1
2018-May-23 12:24N 31°08' E 122°47'0 0.1
2018-May-23 11:48N 31°08' E 122°47'0 0.1
2018-May-23 11:30N 31°08' E 122°47'0 0.0
2018-May-23 10:54N 31°08' E 122°47'0 0.1
2018-May-23 10:27N 31°08' E 122°47'0 0.0
2018-May-23 09:57N 31°08' E 122°47'0 0.0
2018-May-23 09:30N 31°08' E 122°47'0 0.0
2018-May-23 08:18N 31°08' E 122°47'0 0.2
2018-May-23 07:57N 31°08' E 122°47'  

Dump ship's entire track history